Time;durP1;ratioP1;P1;durP2;ratioP2;P2;SDS_P1;SDS_P2;PMS_P1;PMS_P2;Temp;Humidity;BMP_temperature;BMP_pressure;BME280_temperature;BME280_humidity;BME280_pressure;Samples;Min_cycle;Max_cycle;Signal;HPM_P1;HPM_P2
2021/12/25 00:01:06;;;;;;;10.20;5.33;;;3.50;75.80;;;;;;5105742;28;20024;-85
2021/12/25 00:03:32;;;;;;;12.43;4.97;;;3.50;75.90;;;;;;5103490;28;20409;-84
2021/12/25 00:05:58;;;;;;;13.43;4.03;;;3.50;75.90;;;;;;5103859;28;20105;-84
2021/12/25 00:08:26;;;;;;;10.73;5.13;;;3.40;76.10;;;;;;5113717;28;20474;-84
2021/12/25 00:10:54;;;;;;;9.90;4.43;;;3.40;76.10;;;;;;5109199;28;20016;-83
2021/12/25 00:13:20;;;;;;;6.50;3.70;;;3.40;76.20;;;;;;5096490;28;20379;-84
2021/12/25 00:15:46;;;;;;;;;;;3.40;76.40;;;;;;5116060;28;20034;-85
2021/12/25 00:18:12;;;;;;;10.07;5.57;;;3.30;76.40;;;;;;5107130;28;19916;-86
2021/12/25 00:20:37;;;;;;;;;;;3.30;76.40;;;;;;5115966;28;20132;-85
2021/12/25 00:23:07;;;;;;;14.23;6.00;;;3.30;76.60;;;;;;5106770;28;19904;-85
2021/12/25 00:25:39;;;;;;;7.50;3.30;;;3.30;76.60;;;;;;5095327;28;20020;-85
2021/12/25 00:31:04;;;;;;;12.33;6.20;;;3.20;76.80;;;;;;5095193;28;20027;-86
2021/12/25 00:33:47;;;;;;;11.37;6.47;;;3.20;77.00;;;;;;5104094;28;20159;-86
2021/12/25 00:36:16;;;;;;;10.90;6.07;;;3.20;77.00;;;;;;5106975;28;20024;-85
2021/12/25 00:38:45;;;;;;;11.47;5.27;;;3.30;77.00;;;;;;5094767;28;20488;-85
2021/12/25 00:41:12;;;;;;;10.50;4.73;;;3.20;77.00;;;;;;5102437;28;20035;-85
2021/12/25 00:43:38;;;;;;;11.73;6.67;;;3.20;77.10;;;;;;5111662;28;20024;-85
2021/12/25 00:46:03;;;;;;;8.25;4.22;;;3.30;77.10;;;;;;5109285;28;20027;-86
2021/12/25 00:48:29;;;;;;;7.68;4.72;;;3.30;77.10;;;;;;5113405;28;20050;-86
2021/12/25 00:50:55;;;;;;;13.70;6.22;;;3.30;77.10;;;;;;5101924;28;20028;-85
2021/12/25 00:53:20;;;;;;;;;;;3.30;77.00;;;;;;5103355;28;20597;-85
2021/12/25 00:55:47;;;;;;;14.90;6.30;;;3.30;77.10;;;;;;5110129;28;19908;-85
2021/12/25 00:58:12;;;;;;;14.07;6.43;;;3.40;76.80;;;;;;5103152;28;20518;-84
2021/12/25 01:00:44;;;;;;;10.85;5.95;;;3.30;76.90;;;;;;5110157;28;20020;-85
2021/12/25 01:03:10;;;;;;;13.43;7.60;;;3.30;77.00;;;;;;5109126;28;20050;-85
2021/12/25 01:05:36;;;;;;;12.97;7.17;;;3.30;77.00;;;;;;5097415;28;20024;-86
2021/12/25 01:08:02;;;;;;;15.90;7.30;;;3.30;77.10;;;;;;5103292;28;20031;-85
2021/12/25 01:10:29;;;;;;;;;;;3.30;77.10;;;;;;5103075;28;20382;-83
2021/12/25 01:13:16;;;;;;;13.20;6.18;;;3.30;77.20;;;;;;5107591;28;20307;-86
2021/12/25 01:15:57;;;;;;;;;;;3.30;77.00;;;;;;5109808;28;20375;-85
2021/12/25 01:27:00;;;;;;;15.17;8.13;;;3.20;77.20;;;;;;5108449;28;20085;-84
2021/12/25 01:32:35;;;;;;;17.33;7.83;;;3.10;77.50;;;;;;5099061;28;20032;-84
2021/12/25 01:35:17;;;;;;;14.10;7.00;;;3.10;77.50;;;;;;5110062;28;20024;-85
2021/12/25 01:48:14;;;;;;;12.17;6.80;;;3.20;77.40;;;;;;5097519;28;20501;-85
2021/12/25 01:50:39;;;;;;;;;;;3.10;77.40;;;;;;5101528;28;20028;-85
2021/12/25 01:53:06;;;;;;;13.03;6.17;;;3.20;77.60;;;;;;5094046;28;19955;-85
2021/12/25 01:55:31;;;;;;;;;;;3.20;77.40;;;;;;5096055;28;20035;-84
2021/12/25 01:58:00;;;;;;;10.03;6.00;;;3.10;77.50;;;;;;5103844;28;19908;-85
2021/12/25 02:00:40;;;;;;;10.80;6.43;;;3.20;77.40;;;;;;5104302;28;20111;-85
2021/12/25 02:03:08;;;;;;;14.27;7.80;;;3.10;77.50;;;;;;5094596;28;20073;-85
2021/12/25 02:05:33;;;;;;;14.17;8.37;;;3.10;77.60;;;;;;5099294;28;20024;-85
2021/12/25 02:07:59;;;;;;;;;;;3.10;77.60;;;;;;5105353;28;20030;-86
2021/12/25 02:10:24;;;;;;;14.90;7.57;;;3.10;77.70;;;;;;5106106;28;19908;-85
2021/12/25 02:12:50;;;;;;;15.90;7.97;;;3.20;77.40;;;;;;5113124;28;20495;-85
2021/12/25 02:15:21;;;;;;;;;;;3.20;77.50;;;;;;5097253;28;20480;-84
2021/12/25 02:18:07;;;;;;;7.57;4.17;;;3.20;77.60;;;;;;5104407;28;19916;-86
2021/12/25 02:20:55;;;;;;;9.37;3.40;;;3.20;77.30;;;;;;5112417;28;20476;-83
2021/12/25 02:23:23;;;;;;;12.03;5.77;;;3.20;77.20;;;;;;5104603;28;20028;-85
2021/12/25 02:25:51;;;;;;;9.80;5.93;;;3.10;77.30;;;;;;5103931;28;20066;-84
2021/12/25 02:28:17;;;;;;;10.33;5.13;;;3.10;77.50;;;;;;5099866;28;20525;-84
2021/12/25 02:30:44;;;;;;;;;;;3.10;77.50;;;;;;5108368;28;20027;-85
2021/12/25 02:33:10;;;;;;;8.52;4.28;;;3.00;77.50;;;;;;5102834;28;19960;-85
2021/12/25 02:35:37;;;;;;;5.05;3.30;;;3.00;77.20;;;;;;5103047;28;20402;-84
2021/12/25 02:38:04;;;;;;;6.00;3.47;;;2.90;77.20;;;;;;5100819;28;20050;-84
2021/12/25 02:40:30;;;;;;;9.17;3.93;;;2.90;77.20;;;;;;5105745;28;20024;-85
2021/12/25 02:42:56;;;;;;;;;;;2.90;77.20;;;;;;5112565;28;20087;-85
2021/12/25 02:45:22;;;;;;;10.47;4.93;;;2.80;77.20;;;;;;5104526;28;19912;-85
2021/12/25 02:47:50;;;;;;;10.83;5.37;;;2.80;77.00;;;;;;5111422;28;20023;-85
2021/12/25 02:50:23;;;;;;;9.53;5.23;;;2.80;77.00;;;;;;5102511;28;20426;-85
2021/12/25 02:52:49;;;;;;;11.53;5.97;;;2.80;77.10;;;;;;5100003;28;20024;-85
2021/12/25 02:55:15;;;;;;;;;;;2.80;77.00;;;;;;5096114;28;20417;-85
2021/12/25 02:57:40;;;;;;;14.50;5.90;;;2.80;77.10;;;;;;5107879;28;19908;-85
2021/12/25 03:00:08;;;;;;;;;;;2.90;76.70;;;;;;5100106;28;20024;-84
2021/12/25 03:02:34;;;;;;;;;;;2.80;76.90;;;;;;5105043;28;19908;-84
2021/12/25 03:05:00;;;;;;;16.37;6.80;;;2.80;76.70;;;;;;5103314;28;19914;-85
2021/12/25 03:07:25;;;;;;;;;;;2.80;76.60;;;;;;5113359;28;20032;-85
2021/12/25 03:09:51;;;;;;;9.93;5.10;;;2.80;76.70;;;;;;5100366;28;19998;-84
2021/12/25 03:12:25;;;;;;;10.38;5.32;;;2.80;76.50;;;;;;5095802;28;20028;-85
2021/12/25 03:15:07;;;;;;;12.30;6.10;;;2.80;76.70;;;;;;5109457;28;20031;-86
2021/12/25 03:17:34;;;;;;;8.13;4.30;;;2.80;76.80;;;;;;5109680;28;20088;-82
2021/12/25 03:20:00;;;;;;;10.83;5.43;;;2.80;76.80;;;;;;5101976;28;20035;-85
2021/12/25 03:22:26;;;;;;;;;;;2.80;76.80;;;;;;5102373;28;20032;-87
2021/12/25 03:24:51;;;;;;;11.27;4.90;;;2.80;76.90;;;;;;5105633;28;19912;-85
2021/12/25 03:27:17;;;;;;;10.88;5.20;;;2.90;76.50;;;;;;5097513;28;20023;-85
2021/12/25 03:29:43;;;;;;;;;;;2.90;76.50;;;;;;5098709;28;20031;-86
2021/12/25 03:32:10;;;;;;;12.57;6.07;;;2.90;76.50;;;;;;5103023;28;20348;-85
2021/12/25 03:34:36;;;;;;;11.20;3.77;;;2.90;76.10;;;;;;5104318;28;20024;-86
2021/12/25 03:37:03;;;;;;;13.03;6.50;;;2.80;76.20;;;;;;5106997;28;20024;-86
2021/12/25 03:39:29;;;;;;;11.67;6.17;;;2.80;76.20;;;;;;5099932;28;20460;-87
2021/12/25 03:41:57;;;;;;;;;;;2.80;76.20;;;;;;5106986;28;20020;-87
2021/12/25 03:44:23;;;;;;;7.93;4.90;;;2.80;76.20;;;;;;5116772;28;19912;-86
2021/12/25 03:46:50;;;;;;;5.20;3.33;;;2.80;75.80;;;;;;5096528;28;20033;-85
2021/12/25 03:49:45;;;;;;;7.40;3.43;;;2.60;75.70;;;;;;5113184;28;20849;-85
2021/12/25 03:57:49;;;;;;;3.80;2.23;;;2.30;75.30;;;;;;5099602;28;20094;-85
2021/12/25 04:00:16;;;;;;;6.53;2.85;;;2.20;75.00;;;;;;5095850;28;20444;-87
2021/12/25 04:02:51;;;;;;;6.47;2.53;;;2.10;75.00;;;;;;5112834;28;20022;-88
2021/12/25 04:05:19;;;;;;;3.97;1.87;;;2.00;75.00;;;;;;5097796;28;20024;-86
2021/12/25 04:10:33;;;;;;;5.50;3.00;;;1.90;74.60;;;;;;5104497;28;20035;-85
2021/12/25 04:13:00;;;;;;;5.87;2.33;;;1.80;74.70;;;;;;5114803;28;20106;-85
2021/12/25 04:15:25;;;;;;;;;;;1.80;74.70;;;;;;5103700;28;20427;-84
2021/12/25 04:17:51;;;;;;;5.27;2.63;;;1.80;74.70;;;;;;5098780;28;19908;-87
2021/12/25 04:20:17;;;;;;;;;;;1.70;74.50;;;;;;5108958;28;20032;-86
2021/12/25 04:22:52;;;;;;;5.10;2.60;;;1.60;74.60;;;;;;5105630;28;19903;-86
2021/12/25 04:25:27;;;;;;;5.83;2.90;;;1.60;74.50;;;;;;5097198;28;20040;-85
2021/12/25 04:27:53;;;;;;;4.53;2.50;;;1.60;74.60;;;;;;5112528;28;20016;-86
2021/12/25 04:30:29;;;;;;;4.07;2.53;;;1.60;74.50;;;;;;5108981;28;20102;-85
2021/12/25 05:02:58;;;;;;;2.97;1.80;;;1.10;73.30;;;;;;5106747;28;20085;-86
2021/12/25 05:05:24;;;;;;;4.37;2.10;;;1.00;73.30;;;;;;5105436;28;20124;-86
2021/12/25 05:07:50;;;;;;;;;;;0.90;73.10;;;;;;5102779;28;20060;-86
2021/12/25 05:10:15;;;;;;;3.57;1.70;;;0.90;73.20;;;;;;5111733;28;20014;-87
2021/12/25 05:12:41;;;;;;;;;;;0.80;72.90;;;;;;5103779;28;20031;-86
2021/12/25 05:15:07;;;;;;;3.87;1.60;;;0.80;72.70;;;;;;5112167;28;19914;-86
2021/12/25 05:17:32;;;;;;;;;;;0.80;72.60;;;;;;5106830;28;20061;-85
2021/12/25 05:19:59;;;;;;;6.83;1.50;;;0.70;72.70;;;;;;5100476;28;20252;-86
2021/12/25 05:22:25;;;;;;;2.63;1.60;;;0.70;72.40;;;;;;5095891;28;20028;-86
2021/12/25 05:24:51;;;;;;;;;;;0.60;72.50;;;;;;5101385;28;20026;-85
2021/12/25 05:27:18;;;;;;;2.97;1.57;;;0.60;72.60;;;;;;5097577;28;19961;-85
2021/12/25 05:29:47;;;;;;;3.60;1.60;;;0.60;72.40;;;;;;5110594;28;20270;-86
2021/12/25 05:32:18;;;;;;;3.80;1.77;;;0.60;72.50;;;;;;5097065;28;20483;-84
2021/12/25 05:34:44;;;;;;;4.67;1.90;;;0.60;72.70;;;;;;5095869;28;20086;-84
2021/12/25 05:37:10;;;;;;;4.63;1.87;;;0.60;72.60;;;;;;5111643;28;20024;-83
2021/12/25 05:39:36;;;;;;;;;;;0.50;72.60;;;;;;5110634;28;20122;-85
2021/12/25 05:42:02;;;;;;;2.97;1.67;;;0.50;72.70;;;;;;5101960;28;19956;-84
2021/12/25 05:44:28;;;;;;;4.93;2.30;;;0.50;72.50;;;;;;5097382;28;20039;-86
2021/12/25 05:46:54;;;;;;;2.67;1.88;;;0.50;72.60;;;;;;5103423;28;20017;-86
2021/12/25 05:49:20;;;;;;;4.85;2.22;;;0.50;72.80;;;;;;5111523;28;20361;-86
2021/12/25 05:51:46;;;;;;;3.93;2.03;;;0.50;72.80;;;;;;5100921;28;20377;-85
2021/12/25 05:54:11;;;;;;;;;;;0.50;72.90;;;;;;5100578;28;20039;-85
2021/12/25 05:56:37;;;;;;;5.50;2.30;;;0.60;72.80;;;;;;5113172;28;20029;-86
2021/12/25 05:59:03;;;;;;;4.57;2.47;;;0.60;72.50;;;;;;5106553;28;20080;-85
2021/12/25 06:01:29;;;;;;;;;;;0.60;72.60;;;;;;5100770;28;20032;-86
2021/12/25 06:03:56;;;;;;;8.87;2.27;;;0.60;72.60;;;;;;5100301;28;19979;-85
2021/12/25 06:06:21;;;;;;;3.70;2.07;;;0.60;72.40;;;;;;5107838;28;20057;-85
2021/12/25 06:08:47;;;;;;;;;;;0.50;72.40;;;;;;5103441;28;20114;-84
2021/12/25 06:11:12;;;;;;;3.37;2.07;;;0.50;72.50;;;;;;5105662;28;20268;-85
2021/12/25 06:13:44;;;;;;;;;;;0.40;72.30;;;;;;5097823;28;20093;-87
2021/12/25 06:16:13;;;;;;;3.67;2.70;;;0.40;72.50;;;;;;5108754;28;19960;-84
2021/12/25 06:18:38;;;;;;;4.30;2.37;;;0.30;72.10;;;;;;5110090;28;20043;-87
2021/12/25 06:21:04;;;;;;;;;;;0.30;72.10;;;;;;5114867;28;20020;-86
2021/12/25 06:23:30;;;;;;;3.70;1.90;;;0.20;72.20;;;;;;5097840;28;19973;-87
2021/12/25 06:25:55;;;;;;;6.53;2.67;;;0.10;71.70;;;;;;5108442;28;20023;-88
2021/12/25 06:28:21;;;;;;;4.05;2.05;;;0.00;71.80;;;;;;5108190;28;20031;-87
2021/12/25 06:30:49;;;;;;;6.22;2.88;;;0.00;72.00;;;;;;5110120;28;20076;-87
2021/12/25 06:33:15;;;;;;;3.83;2.33;;;0.00;72.10;;;;;;5108595;28;20083;-87
2021/12/25 06:35:40;;;;;;;;;;;0.00;71.90;;;;;;5111342;28;20036;-86
2021/12/25 06:38:06;;;;;;;4.50;2.30;;;-3276.70;71.60;;;;;;5097774;28;19923;-86
2021/12/25 06:40:31;;;;;;;3.47;2.03;;;-3276.70;71.10;;;;;;5098246;28;20036;-87
2021/12/25 06:42:57;;;;;;;5.93;2.83;;;-3276.60;71.20;;;;;;5102431;28;20055;-86
2021/12/25 06:45:23;;;;;;;;;;;-3276.50;71.10;;;;;;5096405;28;20028;-86
2021/12/25 06:47:48;;;;;;;5.40;2.27;;;-3276.40;71.30;;;;;;5103833;28;20276;-87
2021/12/25 06:50:14;;;;;;;7.55;2.92;;;-3276.40;71.20;;;;;;5103935;28;20030;-85
2021/12/25 06:52:41;;;;;;;4.43;2.33;;;-3276.30;71.20;;;;;;5105666;28;20054;-86
2021/12/25 06:55:07;;;;;;;6.00;2.30;;;-3276.30;71.20;;;;;;5109089;28;20035;-87
2021/12/25 06:57:39;;;;;;;;;;;-3276.30;71.30;;;;;;5100789;28;20028;-85
2021/12/25 07:00:05;;;;;;;4.27;2.00;;;-3276.20;71.50;;;;;;5111550;28;19918;-85
2021/12/25 07:02:31;;;;;;;5.13;2.50;;;-3276.30;71.20;;;;;;5105527;28;20152;-85
2021/12/25 07:04:56;;;;;;;;;;;-3276.30;71.20;;;;;;5106888;28;20523;-85
2021/12/25 07:07:23;;;;;;;5.97;2.43;;;-3276.30;71.20;;;;;;5095973;28;20010;-85
2021/12/25 07:09:49;;;;;;;4.80;2.37;;;-3276.30;71.00;;;;;;5100198;28;20046;-86
2021/12/25 07:12:14;;;;;;;;;;;-3276.30;71.00;;;;;;5095739;28;20024;-84
2021/12/25 07:14:40;;;;;;;6.70;2.70;;;-3276.30;71.10;;;;;;5113340;28;20002;-85
2021/12/25 07:17:05;;;;;;;2.97;1.75;;;-3276.30;70.80;;;;;;5102954;28;20039;-85
2021/12/25 07:19:31;;;;;;;;;;;-3276.30;70.80;;;;;;5107611;28;20042;-86
2021/12/25 07:21:58;;;;;;;3.20;2.20;;;-3276.30;70.90;;;;;;5115350;28;20014;-89
2021/12/25 07:24:23;;;;;;;;;;;-3276.30;70.60;;;;;;5111610;28;20041;-91
2021/12/25 07:26:49;;;;;;;5.03;2.50;;;-3276.30;70.70;;;;;;5118524;28;19904;-91
2021/12/25 07:29:14;;;;;;;5.90;2.20;;;-3276.30;70.40;;;;;;5105852;28;20473;-91
2021/12/25 07:31:40;;;;;;;4.30;2.17;;;-3276.30;70.40;;;;;;5112171;28;20074;-90
2021/12/25 07:34:06;;;;;;;;;;;-3276.30;70.50;;;;;;5118213;28;20077;-90
2021/12/25 07:36:31;;;;;;;5.47;2.30;;;-3276.30;70.50;;;;;;5102725;28;19907;-91
2021/12/25 07:38:57;;;;;;;;;;;-3276.40;70.30;;;;;;5118818;28;20026;-91
2021/12/25 07:41:23;;;;;;;6.50;2.43;;;-3276.40;70.30;;;;;;5101561;28;19908;-90
2021/12/25 07:43:48;;;;;;;5.85;2.60;;;-3276.40;70.00;;;;;;5112274;28;20024;-91
2021/12/25 07:46:14;;;;;;;;;;;-3276.30;70.00;;;;;;5106883;28;20024;-91
2021/12/25 07:48:40;;;;;;;4.03;2.00;;;-3276.30;70.00;;;;;;5110143;28;19927;-89
2021/12/25 07:51:05;;;;;;;;;;;-3276.40;69.90;;;;;;5101516;28;20043;-90
2021/12/25 07:53:32;;;;;;;6.33;3.00;;;-3276.40;69.80;;;;;;5108426;28;19908;-91
2021/12/25 07:55:58;;;;;;;7.90;3.03;;;-3276.40;69.60;;;;;;5102598;28;20032;-90
2021/12/25 07:58:23;;;;;;;;;;;-3276.40;69.80;;;;;;5105708;28;20043;-90
2021/12/25 08:00:50;;;;;;;7.07;2.60;;;-3276.40;69.90;;;;;;5101296;28;19908;-91
2021/12/25 08:03:16;;;;;;;5.30;1.93;;;-3276.50;69.40;;;;;;5107857;28;20024;-90
2021/12/25 08:05:42;;;;;;;;;;;-3276.50;69.40;;;;;;5118698;28;20026;-91
2021/12/25 08:08:08;;;;;;;6.27;2.60;;;-3276.50;69.10;;;;;;5109814;28;19947;-89
2021/12/25 08:10:33;;;;;;;;;;;-3276.40;68.70;;;;;;5106045;28;20072;-92
2021/12/25 08:12:59;;;;;;;6.43;2.83;;;-3276.40;68.70;;;;;;5099052;28;19908;-91
2021/12/25 08:15:26;;;;;;;;;;;-3276.40;68.40;;;;;;5114206;28;20472;-91
2021/12/25 08:17:53;;;;;;;5.10;2.38;;;-3276.40;68.50;;;;;;5098498;28;19912;-91
2021/12/25 08:20:18;;;;;;;4.80;2.50;;;-3276.40;68.20;;;;;;5103107;28;20047;-92
2021/12/25 08:22:44;;;;;;;;;;;-3276.40;68.00;;;;;;5107754;28;20028;-89
2021/12/25 08:25:15;;;;;;;4.43;2.10;;;-3276.50;68.10;;;;;;5109529;28;20314;-91
2021/12/25 08:27:43;;;;;;;6.43;2.60;;;-3276.50;67.70;;;;;;5119883;28;20032;-90
2021/12/25 08:30:12;;;;;;;3.50;1.90;;;-3276.60;67.50;;;;;;5109054;28;20024;-91
2021/12/25 08:32:39;;;;;;;6.00;2.33;;;-3276.60;67.60;;;;;;5101713;28;20028;-91
2021/12/25 08:35:06;;;;;;;5.37;2.87;;;-3276.70;67.70;;;;;;5102006;28;20384;-88
2021/12/25 08:37:31;;;;;;;6.80;2.73;;;-3276.70;67.70;;;;;;5111870;28;20016;-90
2021/12/25 08:39:57;;;;;;;;;;;0.00;67.60;;;;;;5111504;28;20027;-90
2021/12/25 08:42:23;;;;;;;10.50;3.53;;;0.00;67.40;;;;;;5117840;28;19949;-90
2021/12/25 08:47:20;;;;;;;5.53;2.87;;;0.00;67.30;;;;;;5120785;28;20079;-91
2021/12/25 08:49:46;;;;;;;10.63;4.03;;;0.00;67.30;;;;;;5112540;27;20063;-91
2021/12/25 08:52:14;;;;;;;;;;;0.10;67.20;;;;;;5112089;28;20027;-91
2021/12/25 08:54:40;;;;;;;4.40;2.60;;;0.10;67.20;;;;;;5111930;28;19908;-91
2021/12/25 08:57:06;;;;;;;10.27;3.40;;;0.10;67.00;;;;;;5113993;28;20035;-91
2021/12/25 08:59:36;;;;;;;5.43;3.00;;;0.10;67.10;;;;;;5104021;28;20011;-91
2021/12/25 09:02:04;;;;;;;6.90;3.20;;;0.20;67.10;;;;;;5105970;28;20495;-90
2021/12/25 09:04:30;;;;;;;7.43;3.23;;;0.20;67.00;;;;;;5100173;28;20016;-89
2021/12/25 09:06:56;;;;;;;;;;;0.20;67.00;;;;;;5103251;28;20277;-90
2021/12/25 09:09:21;;;;;;;9.33;3.20;;;0.20;67.00;;;;;;5118935;28;19908;-91
2021/12/25 09:11:47;;;;;;;;;;;0.20;66.70;;;;;;5111231;28;20066;-91
2021/12/25 09:14:13;;;;;;;5.87;3.10;;;0.30;66.70;;;;;;5119176;28;20382;-90
2021/12/25 09:16:39;;;;;;;6.95;3.10;;;0.30;66.40;;;;;;5112616;27;20392;-91
2021/12/25 09:19:04;;;;;;;;;;;0.20;66.40;;;;;;5116749;28;20139;-90
2021/12/25 09:21:31;;;;;;;5.73;2.70;;;0.20;66.40;;;;;;5115132;28;19993;-91
2021/12/25 09:23:56;;;;;;;6.97;3.50;;;0.30;66.20;;;;;;5109721;28;20040;-91
2021/12/25 09:26:25;;;;;;;;;;;0.30;66.30;;;;;;5104729;28;20428;-92
2021/12/25 09:28:51;;;;;;;6.00;2.93;;;0.40;66.40;;;;;;5110550;28;19914;-91
2021/12/25 09:31:18;;;;;;;;;;;0.50;66.10;;;;;;5118088;28;20372;-91
2021/12/25 09:33:44;;;;;;;22.05;3.70;;;0.50;66.00;;;;;;5110016;28;19907;-89
2021/12/25 09:36:09;;;;;;;5.72;2.72;;;0.50;65.70;;;;;;5106954;28;20484;-91
2021/12/25 09:38:35;;;;;;;7.30;3.17;;;0.50;65.60;;;;;;5105682;28;20491;-92
2021/12/25 09:41:04;;;;;;;6.50;2.77;;;0.50;65.50;;;;;;5111476;28;20024;-92
2021/12/25 09:43:30;;;;;;;6.90;2.20;;;0.50;65.50;;;;;;5119933;28;20016;-90
2021/12/25 09:45:56;;;;;;;4.33;2.20;;;0.50;65.50;;;;;;5102873;28;20474;-91
2021/12/25 09:48:22;;;;;;;;;;;0.50;65.30;;;;;;5101008;28;20023;-91
2021/12/25 09:50:49;;;;;;;5.13;2.13;;;0.50;65.30;;;;;;5106127;28;19908;-91
2021/12/25 09:53:17;;;;;;;7.10;1.97;;;0.60;65.10;;;;;;5108363;28;20024;-91
2021/12/25 09:55:43;;;;;;;6.53;2.57;;;0.60;64.60;;;;;;5114734;28;20051;-90
2021/12/25 09:58:09;;;;;;;7.00;2.10;;;0.60;64.60;;;;;;5118149;28;20084;-91
2021/12/25 10:00:36;;;;;;;;;;;0.60;64.50;;;;;;5105836;28;20060;-92
2021/12/25 10:03:02;;;;;;;5.90;2.38;;;0.70;64.50;;;;;;5107190;28;19996;-91
2021/12/25 10:05:29;;;;;;;;;;;0.80;64.40;;;;;;5111847;28;20015;-90
2021/12/25 10:08:11;;;;;;;8.23;3.40;;;0.80;64.40;;;;;;5110397;28;20352;-91
2021/12/25 10:11:06;;;;;;;9.20;3.53;;;0.90;64.10;;;;;;5107016;28;20544;-89
2021/12/25 10:13:41;;;;;;;8.33;2.97;;;1.00;64.00;;;;;;5094400;28;20555;-91
2021/12/25 10:16:28;;;;;;;10.10;3.93;;;1.10;63.80;;;;;;5106945;28;20031;-91
2021/12/25 10:19:10;;;;;;;10.17;4.23;;;1.10;63.60;;;;;;5094039;28;20121;-91
2021/12/25 10:21:36;;;;;;;11.10;4.50;;;1.10;63.80;;;;;;5109967;28;20069;-91
2021/12/25 10:24:15;;;;;;;;;;;1.20;63.70;;;;;;5113136;28;20024;-92
2021/12/25 10:26:43;;;;;;;8.20;3.33;;;1.30;63.70;;;;;;5097599;28;19912;-91
2021/12/25 10:29:24;;;;;;;8.13;3.40;;;1.30;63.50;;;;;;5114550;28;20020;-92
2021/12/25 10:31:52;;;;;;;11.13;4.00;;;1.30;63.40;;;;;;5105425;28;20027;-91
2021/12/25 10:34:23;;;;;;;9.90;3.60;;;1.40;63.50;;;;;;5108651;28;20060;-89
2021/12/25 10:36:49;;;;;;;8.67;4.20;;;1.40;63.20;;;;;;5104034;28;20036;-91
2021/12/25 10:39:16;;;;;;;10.63;3.40;;;1.40;63.20;;;;;;5105214;28;20041;-91
2021/12/25 10:41:52;;;;;;;13.90;5.37;;;1.40;63.20;;;;;;5110837;28;20020;-91
2021/12/25 10:44:22;;;;;;;9.30;3.90;;;1.50;63.10;;;;;;5104591;28;20537;-92
2021/12/25 10:46:47;;;;;;;11.47;4.93;;;1.60;63.10;;;;;;5110309;28;20488;-91
2021/12/25 10:49:13;;;;;;;;;;;1.60;63.00;;;;;;5103629;28;20034;-92
2021/12/25 10:51:39;;;;;;;13.17;5.63;;;1.80;63.00;;;;;;5106257;28;19953;-91
2021/12/25 10:54:06;;;;;;;;;;;1.90;62.50;;;;;;5097256;28;20046;-91
2021/12/25 10:56:34;;;;;;;;;;;2.00;62.40;;;;;;5105986;28;19931;-93
2021/12/25 10:59:08;;;;;;;9.63;3.80;;;2.10;62.10;;;;;;5098301;28;20007;-91
2021/12/25 11:01:47;;;;;;;12.20;4.03;;;2.30;61.40;;;;;;5110875;28;20041;-91
2021/12/25 11:04:39;;;;;;;9.70;3.73;;;2.30;61.40;;;;;;5099619;28;20082;-92
2021/12/25 11:07:13;;;;;;;9.93;3.83;;;2.30;61.40;;;;;;5095419;28;20133;-92
2021/12/25 11:09:40;;;;;;;10.40;4.40;;;2.40;61.40;;;;;;5098108;28;20027;-92
2021/12/25 11:12:20;;;;;;;9.97;4.33;;;2.40;61.30;;;;;;5096040;28;20020;-92
2021/12/25 11:14:46;;;;;;;9.17;3.63;;;2.40;61.00;;;;;;5097629;28;20056;-91
2021/12/25 11:17:22;;;;;;;;;;;2.30;61.10;;;;;;5103291;28;20024;-90
2021/12/25 11:19:59;;;;;;;11.60;4.57;;;2.10;61.00;;;;;;5098012;28;19981;-90
2021/12/25 11:22:25;;;;;;;;;;;2.00;61.00;;;;;;5109901;28;20465;-90
2021/12/25 11:24:52;;;;;;;23.80;8.60;;;1.90;61.30;;;;;;5106518;28;19915;-92
2021/12/25 11:27:20;;;;;;;15.60;6.50;;;1.80;61.40;;;;;;5110388;28;20016;-92
2021/12/25 11:29:46;;;;;;;12.13;5.30;;;1.80;61.50;;;;;;5106846;28;20034;-91
2021/12/25 11:32:12;;;;;;;;;;;1.70;61.40;;;;;;5101143;28;20056;-89
2021/12/25 11:34:38;;;;;;;10.13;4.10;;;1.70;61.60;;;;;;5115912;28;20331;-91
2021/12/25 11:37:04;;;;;;;12.10;4.00;;;1.60;61.50;;;;;;5106589;28;20028;-92
2021/12/25 11:39:31;;;;;;;11.20;4.10;;;1.50;61.40;;;;;;5109825;28;20052;-92
2021/12/25 11:42:04;;;;;;;13.00;5.03;;;1.40;61.50;;;;;;5119950;28;20050;-88
2021/12/25 11:44:42;;;;;;;14.90;5.20;;;1.40;61.50;;;;;;5116115;28;20020;-89
2021/12/25 11:47:25;;;;;;;16.03;6.53;;;1.30;61.50;;;;;;5121039;28;20023;-91
2021/12/25 11:49:53;;;;;;;12.03;4.70;;;1.30;61.60;;;;;;5118846;28;20035;-89
2021/12/25 11:52:19;;;;;;;8.83;4.17;;;1.20;61.60;;;;;;5107472;28;20039;-91
2021/12/25 11:58:04;;;;;;;13.03;5.10;;;1.10;61.50;;;;;;5099435;28;20571;-92
2021/12/25 12:00:36;;;;;;;10.13;4.33;;;1.00;61.60;;;;;;5108908;28;20028;-92
2021/12/25 12:03:06;;;;;;;10.87;4.00;;;1.00;61.50;;;;;;5113195;28;20111;-92
2021/12/25 12:05:34;;;;;;;9.90;4.23;;;1.00;61.60;;;;;;5116171;28;20027;-91
2021/12/25 12:08:03;;;;;;;11.40;4.50;;;0.90;61.50;;;;;;5114622;28;20460;-91
2021/12/25 12:10:44;;;;;;;14.20;4.83;;;0.80;61.50;;;;;;5102965;28;20508;-92
2021/12/25 12:13:27;;;;;;;12.03;4.70;;;0.80;61.50;;;;;;5110949;28;20027;-91
2021/12/25 12:15:59;;;;;;;14.27;4.57;;;0.80;61.60;;;;;;5111388;28;20020;-92
2021/12/25 12:18:29;;;;;;;12.77;3.90;;;0.70;61.60;;;;;;5090756;28;20384;-92
2021/12/25 12:21:01;;;;;;;11.00;4.07;;;0.70;61.60;;;;;;5107618;28;20043;-92
2021/12/25 12:24:22;;;;;;;16.43;5.70;;;0.70;61.40;;;;;;5108703;28;20020;-92
2021/12/25 12:26:44;;;;;;;13.07;5.30;;;0.70;61.50;;;;;;5109484;28;20078;-92
2021/12/25 12:29:11;;;;;;;14.77;4.90;;;0.70;61.40;;;;;;5107778;28;20031;-91
2021/12/25 12:31:47;;;;;;;11.90;4.80;;;0.70;61.40;;;;;;5104076;28;20129;-91
2021/12/25 12:34:38;;;;;;;15.75;5.95;;;0.80;61.40;;;;;;5111575;28;20027;-91
2021/12/25 12:37:16;;;;;;;13.97;6.67;;;0.70;61.40;;;;;;5104675;28;20107;-92
2021/12/25 12:40:06;;;;;;;21.00;6.63;;;0.70;61.20;;;;;;5113113;28;20016;-91
2021/12/25 12:42:45;;;;;;;12.70;3.87;;;0.70;61.30;;;;;;5103255;28;20072;-92
2021/12/25 12:45:12;;;;;;;15.03;5.73;;;0.70;61.20;;;;;;5110264;28;20024;-92
2021/12/25 12:47:38;;;;;;;11.87;4.93;;;0.70;61.20;;;;;;5118327;28;20024;-91
2021/12/25 12:50:04;;;;;;;;;;;0.70;61.20;;;;;;5109699;28;20486;-92
2021/12/25 12:52:39;;;;;;;13.88;3.90;;;0.60;61.10;;;;;;5109889;28;19908;-92
2021/12/25 12:55:26;;;;;;;14.50;4.00;;;0.60;60.90;;;;;;5101539;28;20054;-92
2021/12/25 12:58:17;;;;;;;8.13;3.28;;;0.60;61.00;;;;;;5086457;28;20372;-91
2021/12/25 13:00:50;;;;;;;10.93;3.63;;;0.60;60.90;;;;;;5107837;28;20489;-92
2021/12/25 13:03:16;;;;;;;8.43;3.30;;;0.50;60.80;;;;;;5112893;28;20024;-91
2021/12/25 13:05:49;;;;;;;10.77;3.67;;;0.50;60.90;;;;;;5107059;28;20118;-92
2021/12/25 13:08:21;;;;;;;9.57;3.70;;;0.40;60.80;;;;;;5110127;28;20050;-91
2021/12/25 13:10:51;;;;;;;7.30;2.97;;;0.30;60.40;;;;;;5094670;28;20059;-92
2021/12/25 13:13:28;;;;;;;13.10;4.60;;;0.20;60.30;;;;;;5118712;28;20023;-92
2021/12/25 13:16:00;;;;;;;10.63;3.67;;;0.20;60.50;;;;;;5110494;28;20489;-92
2021/12/25 13:18:29;;;;;;;8.13;3.03;;;0.10;60.70;;;;;;5113106;28;20107;-91
2021/12/25 13:20:55;;;;;;;10.17;3.97;;;0.10;60.70;;;;;;5118538;28;20365;-91
2021/12/25 13:23:25;;;;;;;11.77;4.30;;;0.10;60.80;;;;;;5110471;27;20070;-92
2021/12/25 13:26:00;;;;;;;9.20;3.73;;;0.00;60.80;;;;;;5113517;28;20102;-92
2021/12/25 13:28:28;;;;;;;10.33;3.87;;;0.00;60.90;;;;;;5110419;28;20110;-92
2021/12/25 13:30:58;;;;;;;9.43;3.57;;;0.00;60.80;;;;;;5112726;28;20019;-91
2021/12/25 13:33:26;;;;;;;12.20;3.10;;;-3276.70;60.80;;;;;;5101154;28;20020;-91
2021/12/25 13:36:14;;;;;;;15.00;3.50;;;-3276.70;60.80;;;;;;5106361;28;20020;-89
2021/12/25 13:38:56;;;;;;;14.90;4.43;;;-3276.70;60.80;;;;;;5106568;28;20077;-90
2021/12/25 13:41:36;;;;;;;7.80;3.30;;;-3276.60;60.80;;;;;;5106699;28;20024;-91
2021/12/25 13:44:15;;;;;;;9.07;2.80;;;-3276.60;60.70;;;;;;5103333;28;20051;-92
2021/12/25 13:46:51;;;;;;;7.20;2.93;;;-3276.50;60.80;;;;;;5107506;28;20035;-92
2021/12/25 13:49:27;;;;;;;;;;;-3276.50;60.80;;;;;;5115743;28;20028;-91
2021/12/25 13:51:53;;;;;;;12.53;3.47;;;-3276.40;60.90;;;;;;5107023;28;19908;-85
2021/12/25 13:54:20;;;;;;;5.30;2.70;;;-3276.40;60.70;;;;;;5100145;28;20031;-83
2021/12/25 13:56:47;;;;;;;8.97;2.93;;;-3276.30;60.80;;;;;;5105332;28;20078;-83
2021/12/25 13:59:13;;;;;;;9.20;3.17;;;-3276.20;61.00;;;;;;5099413;28;20063;-84
2021/12/25 14:01:39;;;;;;;;;;;-3276.20;61.00;;;;;;5107986;28;20019;-85
2021/12/25 14:04:10;;;;;;;15.57;3.73;;;-3276.20;61.20;;;;;;5099611;28;19907;-84
2021/12/25 14:06:37;;;;;;;8.53;3.33;;;-3276.20;61.10;;;;;;5099976;28;20024;-89
2021/12/25 14:09:06;;;;;;;8.10;2.90;;;-3276.20;61.20;;;;;;5103098;28;20036;-87
2021/12/25 14:11:32;;;;;;;7.00;2.73;;;-3276.20;61.20;;;;;;5102372;28;20032;-84
2021/12/25 14:13:58;;;;;;;8.73;3.63;;;-3276.20;61.30;;;;;;5106519;28;20365;-85
2021/12/25 14:16:24;;;;;;;;;;;-3276.10;61.40;;;;;;5103200;28;20115;-85
2021/12/25 14:18:50;;;;;;;10.57;4.40;;;-3276.10;61.50;;;;;;5106118;28;20367;-84
2021/12/25 14:21:20;;;;;;;11.63;5.18;;;-3276.00;61.30;;;;;;5113782;28;20027;-86